Portada
METAR-TAF:

METAR-TAF

Aeroports :

Francistown, Botswana

latitud: 21-13S, longitud: 027-30E, altitud: 1001 m

Observació

L'informe es va fer fa 40 minuts, a les 17:00 UTC
Vent 8 kt del Sud-Est
Temperatura 22°C
Humitat 65%
Pressió 1017 hPa
Visibilitat 10 km o més
sense núvols per sota de 1500 mi sense presència de cumulonimbus.

METAR: FBFT 211700Z 13008KT CAVOK 22/15 Q1017

Hora: 19:40 (17:40 UTC)

Pronòstic

L'informe es va fer fa 8 hores i 40 minuts, a les 09:00 UTC
Pronòstic vàlid del 21 a les 12 UTC al 21 a les 21 UTC
Vent 3 kt del Est
Visibilitat 10 km o més
Núvols disperses a una alçada de 2500 ft
Evolucionant progressivament
l' 21 a les 16 UTC al 21 a les 18 UTC
Visibilitat 10 km o més
sense núvols per sota de 1500 mi sense presència de cumulonimbus.

TAF: FBFT 210900Z 2112/2121 10003KT 9999 SCT025 BECMG 2116/2118 CAVOK

Observacions i pronòstics meteorològics de més de 4000 aeroports (METAR i TAF).

Les estacions disponibles són els punts grocs i vermells al mapa.

Posi el ratolí al punt desitjat per veure el nom de l'estació.

Feu clic per veure les observacions i els pronòstics meteorològics.

Per canviar el mapa: feu clic els botons verds amb una creu de color negre per apropar; al botó verd amb un guió per allunyar la imatge; o en les fletxes verdes per a mapes adjacents.


METAR-TAF: